Terminal Aerodrome Forecast
Issued by NWS

Home | Current Version | Previous Version | Graphics & Text | Print | Product List | Glossary On
Versions: 1 2 3 4 5 6 7 8 9 10 11 12 13 14 15 16 17 18 19 20 21 22 23 24 25 26 27 28 29 30
433
FTUS43 KLOT 240526
TAFDPA
TAF
KDPA 240526Z 2406/2506 05013KT P6SM -DZ VCSH OVC006
      TEMPO 2406/2408 2SM TSRA BR OVC008CB
     FM240800 05014KT 4SM -DZ BR VCSH OVC005
      TEMPO 2408/2412 SHRA
     FM241200 04010KT 2SM -DZ BR VCSH OVC004
     FM241500 01008KT 1 1/2SM -DZ BR OVC003 PROB30 2416/2419 3/4SM
      -DZ BR VV002
     FM241900 33008KT 3SM BR VCSH OVC007
     FM242200 28008KT P6SM SCT007 OVC015
     FM250300 29012G18KT P6SM OVC022=

USA.gov is the U.S. government's official web portal to all federal, state and local government web resources and services.